Flight Track Log - Related Links

Times and Time Zones

All times are in EDT time to prevent confusion due to time zone crossing. See the CTL22 flight status page for this flight to view local times or setup timezone preferences in your user account.

Time Position Orientation Groundspeed Altitude Reporting Facility
EDT Latitude Longitude Course Direction KTS MPH feet Rate Location/Type
Tue 08:05:16 PM 42.2119 -85.4036 113° Southeast 125 144 4,600  Level Chicago Center
Tue 08:06:18 PM 42.1939 -85.3589 119° Southeast 132 152 5,300 629 Climbing Chicago Center
Tue 08:07:20 PM 42.1750 -85.3125 119° Southeast 138 159 5,900 532 Climbing Chicago Center
Tue 08:08:00 PM 42.1719 -85.1803 103° East  Level Estimated
Tue 08:08:22 PM 42.1556 -85.2611 117° Southeast 149 171 6,400  Level Chicago Center
Tue 08:09:00 PM 42.1614 -85.1185 103° East  Level Estimated
Tue 08:09:24 PM 42.1372 -85.2081 115° Southeast 154 177 6,900  Level Chicago Center
Tue 08:10:27 PM 42.1175 -85.1525 116° Southeast 160 184 7,000 96 Climbing Chicago Center
Tue 08:11:29 PM 42.0958 -85.0792 112° Southeast 170 196 7,100 -48 Climbing Chicago Center
Tue 08:12:31 PM 42.0731 -85.0189 117° Southeast 177 204 6,900 -48 Descending Chicago Center
Tue 08:13:33 PM 42.0489 -84.9592 119° Southeast 179 206 7,000 48 Climbing Chicago Center
Tue 08:14:35 PM 42.0247 -84.9006 119° Southeast 179 206 7,000  Level Chicago Center
Tue 08:15:37 PM 42.0019 -84.8392 117° Southeast 182 209 7,000  Level Chicago Center
Tue 08:16:39 PM 41.9861 -84.7764 109° East 178 205 7,000  Level Chicago Center
Tue 08:17:41 PM 41.9608 -84.7039 115° Southeast 178 205 7,000 97 Level Chicago Center
Tue 08:18:43 PM 41.9358 -84.6453 120° Southeast 179 206 7,200 48 Climbing Chicago Center
Tue 08:19:45 PM 41.9142 -84.5836 115° Southeast 181 208 7,100 -96 Descending Chicago Center
Tue 08:20:48 PM 41.8914 -84.5208 116° Southeast 184 212 7,000 -48 Descending Chicago Center
Tue 08:21:50 PM 41.8750 -84.4564 109° East 184 212 7,000 -48 Level Chicago Center
Tue 08:22:52 PM 41.8556 -84.3950 113° Southeast 181 208 6,900  Descending Chicago Center
Tue 08:23:54 PM 41.8236 -84.3244 121° Southeast 181 208 7,000  Climbing Chicago Center
Tue 08:24:56 PM 41.7975 -84.2633 120° Southeast 184 212 6,900  Descending Chicago Center
Tue 08:25:58 PM 41.7786 -84.1986 111° Southeast 188 216 7,000 48 Climbing Chicago Center
Tue 08:27:00 PM 41.7597 -84.1353 112° Southeast 186 214 7,000 10 Level Chicago Center
Tue 08:45:05 PM 41.5994 -82.9683 100° East 174 200 7,200  Climbing Cleveland Center
Tue 08:45:35 PM 41.6000 -82.9378 89° East 176 203 7,000 -132 Descending Cleveland Center
Tue 08:46:36 PM 41.5953 -82.8739 96° East 180 207 7,000  Level Cleveland Center
Tue 08:47:37 PM 41.5922 -82.8072 93° East 174 200 7,000  Level Cleveland Center
Tue 08:49:32 PM 41.5800 -82.6844 98° East 175 201 7,000 -265 Level Cleveland Center
Tue 08:50:38 PM 41.5836 -82.6042 87° East 202 232 6,200 -638 Descending Cleveland Center
Tue 08:52:40 PM 41.5964 -82.4600 83° East 193 222 5,000 -396 Descending Cleveland Center
Tue 08:53:40 PM 41.5994 -82.3992 86° East 169 194 5,000  Level Cleveland Center
Tue 08:54:41 PM 41.6067 -82.3411 81° East 162 186 5,000 -328 Level Cleveland Center
Tue 08:55:48 PM 41.6119 -82.2661 85° East 174 200 4,300 -595 Descending Cleveland Center
Tue 08:56:42 PM 41.6147 -82.2133 86° East 175 201 3,800 -606 Descending Cleveland Center
Tue 08:57:37 PM 41.6219 -82.1525 81° East 171 197 3,200 -417 Descending Cleveland Center
Tue 08:58:37 PM 41.6269 -82.0917 84° East 168 193 3,000 -595 Descending Cleveland Center
Tue 08:59:38 PM 41.6319 -82.0250 84° East 184 212 2,000 -590 Descending Cleveland Center
Tue 09:00:39 PM 41.6264 -81.9636 97° East 173 199 1,800 -194 Descending Cleveland Center
Tue 09:01:42 PM 41.6000 -81.9075 122° Southeast 171 197 1,600 -99 Descending Cleveland Center
Tue 09:02:40 PM 41.5756 -81.8600 125° Southeast 160 184 1,600  Level Cleveland Center
Tue 09:03:41 PM 41.5489 -81.8094 125° Southeast 160 184 1,600 -142 Level Cleveland Center
Tue 09:04:47 PM 41.5267 -81.7592 121° Southeast 146 168 1,300 -273 Descending Cleveland Center

Login

Don't have an account? Register now (free) for customized features, flight alerts, and more!